Terminal Aerodrome Forecast
Issued by NWS Quad Cities IA IL

Home | Current Version | Previous Version | Text Only | Print | Product List | Glossary On
Versions: 1 2 3 4 5 6 7 8 9 10 11 12 13 14 15 16 17 18 19
000
FTUS43 KDVN 252000 AAA
TAFMLI
TAF AMD
KMLI 252003Z 2520/2618 07014KT 3SM -SN BR BKN030
     FM252100 08010KT 1SM -SN BR OVC010
      TEMPO 2522/2524 1/2SM SN FZFG OVC008
     FM260000 06010KT 1/2SM SN FZFG OVC004
     FM260300 03010KT 2SM -SN OVC006
     FM261000 02010KT P6SM VCSH BKN015
     FM261200 36012KT P6SM OVC030=

USA.gov is the U.S. government's official web portal to all federal, state and local government web resources and services.